sensor_id;sensor_type;location;lat;lon;timestamp;temperature;humidity
20319;DHT22;10317;47.254;11.314;2022-11-20T00:01:28;1.70;99.90
20319;DHT22;10317;47.254;11.314;2022-11-20T00:03:55;1.70;99.90
20319;DHT22;10317;47.254;11.314;2022-11-20T00:06:22;1.70;99.90
20319;DHT22;10317;47.254;11.314;2022-11-20T00:08:48;1.60;99.90
20319;DHT22;10317;47.254;11.314;2022-11-20T00:11:21;1.60;99.90
20319;DHT22;10317;47.254;11.314;2022-11-20T00:13:49;1.60;99.90
20319;DHT22;10317;47.254;11.314;2022-11-20T00:16:18;1.60;99.90
20319;DHT22;10317;47.254;11.314;2022-11-20T00:18:44;1.50;99.90
20319;DHT22;10317;47.254;11.314;2022-11-20T00:21:13;1.40;99.90
20319;DHT22;10317;47.254;11.314;2022-11-20T00:23:39;1.40;99.90
20319;DHT22;10317;47.254;11.314;2022-11-20T00:26:06;1.40;99.90
20319;DHT22;10317;47.254;11.314;2022-11-20T00:28:33;1.50;99.90
20319;DHT22;10317;47.254;11.314;2022-11-20T00:33:31;1.50;99.90
20319;DHT22;10317;47.254;11.314;2022-11-20T00:36:10;1.60;99.90
20319;DHT22;10317;47.254;11.314;2022-11-20T00:38:36;1.60;99.90
20319;DHT22;10317;47.254;11.314;2022-11-20T00:41:04;1.60;99.90
20319;DHT22;10317;47.254;11.314;2022-11-20T00:43:30;1.60;99.90
20319;DHT22;10317;47.254;11.314;2022-11-20T00:46:00;1.70;99.90
20319;DHT22;10317;47.254;11.314;2022-11-20T00:48:27;1.70;99.90
20319;DHT22;10317;47.254;11.314;2022-11-20T00:50:53;1.70;99.90
20319;DHT22;10317;47.254;11.314;2022-11-20T00:53:19;1.70;99.90
20319;DHT22;10317;47.254;11.314;2022-11-20T00:56:03;1.80;99.90
20319;DHT22;10317;47.254;11.314;2022-11-20T00:58:31;1.90;99.90
20319;DHT22;10317;47.254;11.314;2022-11-20T01:01:12;1.90;99.90
20319;DHT22;10317;47.254;11.314;2022-11-20T01:03:43;1.90;99.90
20319;DHT22;10317;47.254;11.314;2022-11-20T01:08:37;2.00;99.90
20319;DHT22;10317;47.254;11.314;2022-11-20T01:11:12;2.00;99.90
20319;DHT22;10317;47.254;11.314;2022-11-20T01:13:38;2.10;99.90
20319;DHT22;10317;47.254;11.314;2022-11-20T01:16:25;2.00;99.90
20319;DHT22;10317;47.254;11.314;2022-11-20T01:18:53;2.10;99.90
20319;DHT22;10317;47.254;11.314;2022-11-20T01:21:25;2.10;99.90
20319;DHT22;10317;47.254;11.314;2022-11-20T01:23:52;2.10;99.90
20319;DHT22;10317;47.254;11.314;2022-11-20T01:26:23;2.20;99.90
20319;DHT22;10317;47.254;11.314;2022-11-20T01:28:49;2.20;99.90
20319;DHT22;10317;47.254;11.314;2022-11-20T01:31:26;2.20;99.90
20319;DHT22;10317;47.254;11.314;2022-11-20T01:33:55;2.30;99.90
20319;DHT22;10317;47.254;11.314;2022-11-20T01:36:24;2.30;99.90
20319;DHT22;10317;47.254;11.314;2022-11-20T01:38:54;2.30;99.90
20319;DHT22;10317;47.254;11.314;2022-11-20T01:41:21;2.30;99.90
20319;DHT22;10317;47.254;11.314;2022-11-20T01:44:06;2.30;99.90
20319;DHT22;10317;47.254;11.314;2022-11-20T01:46:35;2.30;99.90
20319;DHT22;10317;47.254;11.314;2022-11-20T01:49:14;2.30;99.90
20319;DHT22;10317;47.254;11.314;2022-11-20T01:51:52;2.30;99.90
20319;DHT22;10317;47.254;11.314;2022-11-20T01:54:34;2.30;99.90
20319;DHT22;10317;47.254;11.314;2022-11-20T01:57:02;2.30;99.90
20319;DHT22;10317;47.254;11.314;2022-11-20T01:59:29;2.30;99.90
20319;DHT22;10317;47.254;11.314;2022-11-20T02:01:55;2.30;99.90
20319;DHT22;10317;47.254;11.314;2022-11-20T02:04:22;2.30;99.90
20319;DHT22;10317;47.254;11.314;2022-11-20T02:07:08;2.30;99.90
20319;DHT22;10317;47.254;11.314;2022-11-20T02:09:34;2.40;99.90
20319;DHT22;10317;47.254;11.314;2022-11-20T02:12:00;2.30;99.90
20319;DHT22;10317;47.254;11.314;2022-11-20T02:14:26;2.30;99.90
20319;DHT22;10317;47.254;11.314;2022-11-20T02:16:54;2.30;99.90
20319;DHT22;10317;47.254;11.314;2022-11-20T02:19:28;2.30;99.90
20319;DHT22;10317;47.254;11.314;2022-11-20T02:22:19;2.30;99.90
20319;DHT22;10317;47.254;11.314;2022-11-20T02:24:47;2.30;99.90
20319;DHT22;10317;47.254;11.314;2022-11-20T02:27:30;2.30;99.90
20319;DHT22;10317;47.254;11.314;2022-11-20T02:30:02;2.20;99.90
20319;DHT22;10317;47.254;11.314;2022-11-20T02:32:30;2.20;99.90
20319;DHT22;10317;47.254;11.314;2022-11-20T02:34:56;2.30;99.90
20319;DHT22;10317;47.254;11.314;2022-11-20T02:37:23;2.30;99.90
20319;DHT22;10317;47.254;11.314;2022-11-20T02:39:53;2.30;99.90
20319;DHT22;10317;47.254;11.314;2022-11-20T02:42:19;2.30;99.90
20319;DHT22;10317;47.254;11.314;2022-11-20T02:44:44;2.30;99.90
20319;DHT22;10317;47.254;11.314;2022-11-20T02:47:10;2.30;99.90
20319;DHT22;10317;47.254;11.314;2022-11-20T02:49:36;2.30;99.90
20319;DHT22;10317;47.254;11.314;2022-11-20T02:52:02;2.30;99.90
20319;DHT22;10317;47.254;11.314;2022-11-20T02:54:27;2.30;99.90
20319;DHT22;10317;47.254;11.314;2022-11-20T02:56:53;2.30;99.90
20319;DHT22;10317;47.254;11.314;2022-11-20T02:59:19;2.30;99.90
20319;DHT22;10317;47.254;11.314;2022-11-20T03:01:44;2.30;99.90
20319;DHT22;10317;47.254;11.314;2022-11-20T03:04:10;2.30;99.90
20319;DHT22;10317;47.254;11.314;2022-11-20T03:06:36;2.20;99.90
20319;DHT22;10317;47.254;11.314;2022-11-20T03:09:02;2.30;99.90
20319;DHT22;10317;47.254;11.314;2022-11-20T03:11:28;2.30;99.90
20319;DHT22;10317;47.254;11.314;2022-11-20T03:13:54;2.30;99.90
20319;DHT22;10317;47.254;11.314;2022-11-20T03:16:21;2.30;99.90
20319;DHT22;10317;47.254;11.314;2022-11-20T03:18:47;2.30;99.90
20319;DHT22;10317;47.254;11.314;2022-11-20T03:21:14;2.30;99.90
20319;DHT22;10317;47.254;11.314;2022-11-20T03:23:40;2.30;99.90
20319;DHT22;10317;47.254;11.314;2022-11-20T03:26:15;2.30;99.90
20319;DHT22;10317;47.254;11.314;2022-11-20T03:28:46;2.40;99.90
20319;DHT22;10317;47.254;11.314;2022-11-20T03:31:13;2.40;99.90
20319;DHT22;10317;47.254;11.314;2022-11-20T03:33:40;2.30;99.90
20319;DHT22;10317;47.254;11.314;2022-11-20T03:36:08;2.30;99.90
20319;DHT22;10317;47.254;11.314;2022-11-20T03:38:34;2.30;99.90
20319;DHT22;10317;47.254;11.314;2022-11-20T03:41:06;2.30;99.90
20319;DHT22;10317;47.254;11.314;2022-11-20T03:43:32;2.30;99.90
20319;DHT22;10317;47.254;11.314;2022-11-20T03:45:58;2.30;99.90
20319;DHT22;10317;47.254;11.314;2022-11-20T03:48:24;2.40;99.90
20319;DHT22;10317;47.254;11.314;2022-11-20T03:50:52;2.40;99.90
20319;DHT22;10317;47.254;11.314;2022-11-20T03:53:18;2.30;99.90
20319;DHT22;10317;47.254;11.314;2022-11-20T03:55:43;2.40;99.90
20319;DHT22;10317;47.254;11.314;2022-11-20T03:58:10;2.30;99.90
20319;DHT22;10317;47.254;11.314;2022-11-20T04:00:36;2.40;99.90
20319;DHT22;10317;47.254;11.314;2022-11-20T04:03:02;2.30;99.90
20319;DHT22;10317;47.254;11.314;2022-11-20T04:05:28;2.40;99.90
20319;DHT22;10317;47.254;11.314;2022-11-20T04:07:54;2.40;99.90
20319;DHT22;10317;47.254;11.314;2022-11-20T04:10:19;2.30;99.90
20319;DHT22;10317;47.254;11.314;2022-11-20T04:12:45;2.40;99.90
20319;DHT22;10317;47.254;11.314;2022-11-20T04:15:11;2.40;99.90
20319;DHT22;10317;47.254;11.314;2022-11-20T04:17:36;2.30;99.90
20319;DHT22;10317;47.254;11.314;2022-11-20T04:20:03;2.30;99.90
20319;DHT22;10317;47.254;11.314;2022-11-20T04:22:28;2.30;99.90
20319;DHT22;10317;47.254;11.314;2022-11-20T04:24:54;2.30;99.90
20319;DHT22;10317;47.254;11.314;2022-11-20T04:27:20;2.20;99.90
20319;DHT22;10317;47.254;11.314;2022-11-20T04:29:46;2.20;99.90
20319;DHT22;10317;47.254;11.314;2022-11-20T04:32:11;2.20;99.90
20319;DHT22;10317;47.254;11.314;2022-11-20T04:34:37;2.20;99.90
20319;DHT22;10317;47.254;11.314;2022-11-20T04:37:03;2.20;99.90
20319;DHT22;10317;47.254;11.314;2022-11-20T04:39:28;2.20;99.90
20319;DHT22;10317;47.254;11.314;2022-11-20T04:41:54;2.30;99.90
20319;DHT22;10317;47.254;11.314;2022-11-20T04:44:39;2.20;99.90
20319;DHT22;10317;47.254;11.314;2022-11-20T04:47:05;2.30;99.90
20319;DHT22;10317;47.254;11.314;2022-11-20T04:49:31;2.30;99.90
20319;DHT22;10317;47.254;11.314;2022-11-20T04:51:57;2.30;99.90
20319;DHT22;10317;47.254;11.314;2022-11-20T04:54:23;2.30;99.90
20319;DHT22;10317;47.254;11.314;2022-11-20T04:56:49;2.30;99.90
20319;DHT22;10317;47.254;11.314;2022-11-20T04:59:16;2.30;99.90
20319;DHT22;10317;47.254;11.314;2022-11-20T05:01:42;2.30;99.90
20319;DHT22;10317;47.254;11.314;2022-11-20T05:04:08;2.30;99.90
20319;DHT22;10317;47.254;11.314;2022-11-20T05:06:34;2.30;99.90
20319;DHT22;10317;47.254;11.314;2022-11-20T05:08:59;2.30;99.90
20319;DHT22;10317;47.254;11.314;2022-11-20T05:11:26;2.20;99.90
20319;DHT22;10317;47.254;11.314;2022-11-20T05:13:54;2.20;99.90
20319;DHT22;10317;47.254;11.314;2022-11-20T05:16:24;2.30;99.90
20319;DHT22;10317;47.254;11.314;2022-11-20T05:18:51;2.30;99.90
20319;DHT22;10317;47.254;11.314;2022-11-20T05:21:17;2.30;99.90
20319;DHT22;10317;47.254;11.314;2022-11-20T05:23:43;2.30;99.90
20319;DHT22;10317;47.254;11.314;2022-11-20T05:26:15;2.30;99.90
20319;DHT22;10317;47.254;11.314;2022-11-20T05:28:41;2.30;99.90
20319;DHT22;10317;47.254;11.314;2022-11-20T05:31:08;2.30;99.90
20319;DHT22;10317;47.254;11.314;2022-11-20T05:33:35;2.30;99.90
20319;DHT22;10317;47.254;11.314;2022-11-20T05:36:02;2.30;99.90
20319;DHT22;10317;47.254;11.314;2022-11-20T05:38:28;2.30;99.90
20319;DHT22;10317;47.254;11.314;2022-11-20T05:40:54;2.30;99.90
20319;DHT22;10317;47.254;11.314;2022-11-20T05:43:19;2.30;99.90
20319;DHT22;10317;47.254;11.314;2022-11-20T05:45:55;2.30;99.90
20319;DHT22;10317;47.254;11.314;2022-11-20T05:48:21;2.30;99.90
20319;DHT22;10317;47.254;11.314;2022-11-20T05:50:47;2.30;99.90
20319;DHT22;10317;47.254;11.314;2022-11-20T05:53:13;2.40;99.90
20319;DHT22;10317;47.254;11.314;2022-11-20T05:55:39;2.40;99.90
20319;DHT22;10317;47.254;11.314;2022-11-20T05:58:04;2.40;99.90
20319;DHT22;10317;47.254;11.314;2022-11-20T06:00:30;2.30;99.90
20319;DHT22;10317;47.254;11.314;2022-11-20T06:02:56;2.30;99.90
20319;DHT22;10317;47.254;11.314;2022-11-20T06:05:21;2.30;99.90
20319;DHT22;10317;47.254;11.314;2022-11-20T06:07:47;2.30;99.90
20319;DHT22;10317;47.254;11.314;2022-11-20T06:10:13;2.30;99.90
20319;DHT22;10317;47.254;11.314;2022-11-20T06:12:38;2.30;99.90
20319;DHT22;10317;47.254;11.314;2022-11-20T06:15:05;2.30;99.90
20319;DHT22;10317;47.254;11.314;2022-11-20T06:17:31;2.30;99.90
20319;DHT22;10317;47.254;11.314;2022-11-20T06:19:56;2.30;99.90
20319;DHT22;10317;47.254;11.314;2022-11-20T06:22:22;2.30;99.90
20319;DHT22;10317;47.254;11.314;2022-11-20T06:24:48;2.20;99.90
20319;DHT22;10317;47.254;11.314;2022-11-20T06:27:13;2.30;99.90
20319;DHT22;10317;47.254;11.314;2022-11-20T06:29:39;2.20;99.90
20319;DHT22;10317;47.254;11.314;2022-11-20T06:32:05;2.20;99.90
20319;DHT22;10317;47.254;11.314;2022-11-20T06:34:33;2.20;99.90
20319;DHT22;10317;47.254;11.314;2022-11-20T06:36:58;2.10;99.90
20319;DHT22;10317;47.254;11.314;2022-11-20T06:39:24;2.20;99.90
20319;DHT22;10317;47.254;11.314;2022-11-20T06:41:50;2.10;99.90
20319;DHT22;10317;47.254;11.314;2022-11-20T06:44:15;2.10;99.90
20319;DHT22;10317;47.254;11.314;2022-11-20T06:46:41;2.10;99.90
20319;DHT22;10317;47.254;11.314;2022-11-20T06:49:06;2.10;99.90
20319;DHT22;10317;47.254;11.314;2022-11-20T06:51:32;2.10;99.90
20319;DHT22;10317;47.254;11.314;2022-11-20T06:53:58;2.10;99.90
20319;DHT22;10317;47.254;11.314;2022-11-20T06:56:23;2.10;99.90
20319;DHT22;10317;47.254;11.314;2022-11-20T06:58:49;2.00;99.90
20319;DHT22;10317;47.254;11.314;2022-11-20T07:01:15;2.00;99.90
20319;DHT22;10317;47.254;11.314;2022-11-20T07:03:42;2.00;99.90
20319;DHT22;10317;47.254;11.314;2022-11-20T07:06:08;2.00;99.90
20319;DHT22;10317;47.254;11.314;2022-11-20T07:08:35;2.00;99.90
20319;DHT22;10317;47.254;11.314;2022-11-20T07:11:03;1.90;99.90
20319;DHT22;10317;47.254;11.314;2022-11-20T07:13:29;1.90;99.90
20319;DHT22;10317;47.254;11.314;2022-11-20T07:16:02;1.90;99.90
20319;DHT22;10317;47.254;11.314;2022-11-20T07:18:28;1.90;99.90
20319;DHT22;10317;47.254;11.314;2022-11-20T07:20:55;1.90;99.90
20319;DHT22;10317;47.254;11.314;2022-11-20T07:23:21;1.90;99.90
20319;DHT22;10317;47.254;11.314;2022-11-20T07:25:46;2.00;99.90
20319;DHT22;10317;47.254;11.314;2022-11-20T07:28:12;2.00;99.90
20319;DHT22;10317;47.254;11.314;2022-11-20T07:30:39;2.00;99.90
20319;DHT22;10317;47.254;11.314;2022-11-20T07:33:05;2.10;99.90
20319;DHT22;10317;47.254;11.314;2022-11-20T07:35:30;2.20;99.90
20319;DHT22;10317;47.254;11.314;2022-11-20T07:37:56;2.30;99.90
20319;DHT22;10317;47.254;11.314;2022-11-20T07:40:21;2.30;99.90
20319;DHT22;10317;47.254;11.314;2022-11-20T07:42:52;2.40;99.90
20319;DHT22;10317;47.254;11.314;2022-11-20T07:45:19;2.40;99.90
20319;DHT22;10317;47.254;11.314;2022-11-20T07:47:44;2.50;99.90
20319;DHT22;10317;47.254;11.314;2022-11-20T07:50:11;2.50;99.90
20319;DHT22;10317;47.254;11.314;2022-11-20T07:52:37;2.60;99.90
20319;DHT22;10317;47.254;11.314;2022-11-20T07:55:02;2.70;99.90
20319;DHT22;10317;47.254;11.314;2022-11-20T07:57:28;2.80;99.90
20319;DHT22;10317;47.254;11.314;2022-11-20T07:59:54;2.90;99.90
20319;DHT22;10317;47.254;11.314;2022-11-20T08:02:19;2.90;99.90
20319;DHT22;10317;47.254;11.314;2022-11-20T08:04:45;3.10;99.90
20319;DHT22;10317;47.254;11.314;2022-11-20T08:07:11;3.20;99.90
20319;DHT22;10317;47.254;11.314;2022-11-20T08:09:36;3.30;99.90
20319;DHT22;10317;47.254;11.314;2022-11-20T08:12:02;3.40;99.90
20319;DHT22;10317;47.254;11.314;2022-11-20T08:14:46;3.50;99.90
20319;DHT22;10317;47.254;11.314;2022-11-20T08:17:14;3.60;99.90
20319;DHT22;10317;47.254;11.314;2022-11-20T08:19:40;3.70;99.90
20319;DHT22;10317;47.254;11.314;2022-11-20T08:22:05;3.90;99.90
20319;DHT22;10317;47.254;11.314;2022-11-20T08:24:31;3.90;99.90
20319;DHT22;10317;47.254;11.314;2022-11-20T08:26:58;4.10;99.90
20319;DHT22;10317;47.254;11.314;2022-11-20T08:29:25;4.10;99.90
20319;DHT22;10317;47.254;11.314;2022-11-20T08:31:51;4.20;99.90
20319;DHT22;10317;47.254;11.314;2022-11-20T08:34:16;4.20;99.90
20319;DHT22;10317;47.254;11.314;2022-11-20T08:36:42;4.30;99.90
20319;DHT22;10317;47.254;11.314;2022-11-20T08:39:11;4.30;99.90
20319;DHT22;10317;47.254;11.314;2022-11-20T08:41:36;4.30;99.90
20319;DHT22;10317;47.254;11.314;2022-11-20T08:44:04;4.40;99.90
20319;DHT22;10317;47.254;11.314;2022-11-20T08:46:39;4.40;99.90
20319;DHT22;10317;47.254;11.314;2022-11-20T08:49:08;4.50;99.90
20319;DHT22;10317;47.254;11.314;2022-11-20T08:51:35;4.50;99.90
20319;DHT22;10317;47.254;11.314;2022-11-20T08:54:04;4.60;99.90
20319;DHT22;10317;47.254;11.314;2022-11-20T08:56:30;4.60;99.90
20319;DHT22;10317;47.254;11.314;2022-11-20T08:58:56;4.70;99.90
20319;DHT22;10317;47.254;11.314;2022-11-20T09:01:27;4.70;99.90
20319;DHT22;10317;47.254;11.314;2022-11-20T09:03:57;4.70;99.90
20319;DHT22;10317;47.254;11.314;2022-11-20T09:06:23;4.70;99.90
20319;DHT22;10317;47.254;11.314;2022-11-20T09:08:55;4.80;99.90
20319;DHT22;10317;47.254;11.314;2022-11-20T09:11:21;4.70;99.90
20319;DHT22;10317;47.254;11.314;2022-11-20T09:13:47;4.70;99.90
20319;DHT22;10317;47.254;11.314;2022-11-20T09:16:12;4.70;99.90
20319;DHT22;10317;47.254;11.314;2022-11-20T09:18:38;4.70;99.90
20319;DHT22;10317;47.254;11.314;2022-11-20T09:21:10;4.80;99.90
20319;DHT22;10317;47.254;11.314;2022-11-20T09:23:37;4.80;99.90
20319;DHT22;10317;47.254;11.314;2022-11-20T09:26:09;4.80;99.90
20319;DHT22;10317;47.254;11.314;2022-11-20T09:28:35;4.80;99.90
20319;DHT22;10317;47.254;11.314;2022-11-20T09:31:05;4.70;99.90
20319;DHT22;10317;47.254;11.314;2022-11-20T09:33:31;4.70;99.90
20319;DHT22;10317;47.254;11.314;2022-11-20T09:35:57;4.70;99.90
20319;DHT22;10317;47.254;11.314;2022-11-20T09:38:23;4.60;99.90
20319;DHT22;10317;47.254;11.314;2022-11-20T09:41:53;4.60;99.90
20319;DHT22;10317;47.254;11.314;2022-11-20T09:55:15;4.70;99.90
20319;DHT22;10317;47.254;11.314;2022-11-20T09:57:44;4.80;99.90
20319;DHT22;10317;47.254;11.314;2022-11-20T10:00:13;4.90;99.90
20319;DHT22;10317;47.254;11.314;2022-11-20T10:02:44;5.00;99.90
20319;DHT22;10317;47.254;11.314;2022-11-20T10:10:34;5.40;99.90
20319;DHT22;10317;47.254;11.314;2022-11-20T10:27:23;6.00;99.90
20319;DHT22;10317;47.254;11.314;2022-11-20T10:29:47;6.00;99.90
20319;DHT22;10317;47.254;11.314;2022-11-20T10:32:25;6.10;99.90
20319;DHT22;10317;47.254;11.314;2022-11-20T10:35:20;6.20;99.90
20319;DHT22;10317;47.254;11.314;2022-11-20T10:38:00;6.20;99.90
20319;DHT22;10317;47.254;11.314;2022-11-20T10:40:35;6.20;99.90
20319;DHT22;10317;47.254;11.314;2022-11-20T10:43:17;6.30;99.90
20319;DHT22;10317;47.254;11.314;2022-11-20T10:45:56;6.40;99.90
20319;DHT22;10317;47.254;11.314;2022-11-20T10:48:26;6.40;99.90
20319;DHT22;10317;47.254;11.314;2022-11-20T10:56:47;6.60;99.90
20319;DHT22;10317;47.254;11.314;2022-11-20T11:02:21;6.70;99.90
20319;DHT22;10317;47.254;11.314;2022-11-20T11:04:50;6.70;99.90
20319;DHT22;10317;47.254;11.314;2022-11-20T11:07:36;6.80;99.90
20319;DHT22;10317;47.254;11.314;2022-11-20T11:10:23;6.80;99.90
20319;DHT22;10317;47.254;11.314;2022-11-20T11:12:49;6.70;99.90
20319;DHT22;10317;47.254;11.314;2022-11-20T11:17:51;6.60;99.90
20319;DHT22;10317;47.254;11.314;2022-11-20T11:20:23;6.60;99.90
20319;DHT22;10317;47.254;11.314;2022-11-20T11:22:55;6.60;99.90
20319;DHT22;10317;47.254;11.314;2022-11-20T11:25:30;6.60;99.90
20319;DHT22;10317;47.254;11.314;2022-11-20T11:28:21;6.60;99.90
20319;DHT22;10317;47.254;11.314;2022-11-20T11:30:47;6.50;99.90
20319;DHT22;10317;47.254;11.314;2022-11-20T11:33:27;6.50;99.90
20319;DHT22;10317;47.254;11.314;2022-11-20T11:35:54;6.40;99.90
20319;DHT22;10317;47.254;11.314;2022-11-20T11:38:30;6.40;99.90
20319;DHT22;10317;47.254;11.314;2022-11-20T11:40:57;6.40;99.90
20319;DHT22;10317;47.254;11.314;2022-11-20T11:43:26;6.50;99.90
20319;DHT22;10317;47.254;11.314;2022-11-20T11:49:21;6.50;99.90
20319;DHT22;10317;47.254;11.314;2022-11-20T11:52:26;6.60;99.90
20319;DHT22;10317;47.254;11.314;2022-11-20T11:55:00;6.60;99.90
20319;DHT22;10317;47.254;11.314;2022-11-20T11:57:34;6.70;99.90
20319;DHT22;10317;47.254;11.314;2022-11-20T12:05:25;7.00;99.90
20319;DHT22;10317;47.254;11.314;2022-11-20T12:11:04;7.30;99.90
20319;DHT22;10317;47.254;11.314;2022-11-20T12:16:04;7.60;99.90
20319;DHT22;10317;47.254;11.314;2022-11-20T12:18:30;7.60;99.90
20319;DHT22;10317;47.254;11.314;2022-11-20T12:21:12;7.70;99.90
20319;DHT22;10317;47.254;11.314;2022-11-20T12:24:05;7.70;99.90
20319;DHT22;10317;47.254;11.314;2022-11-20T12:32:06;7.60;99.90
20319;DHT22;10317;47.254;11.314;2022-11-20T12:39:55;7.80;99.90
20319;DHT22;10317;47.254;11.314;2022-11-20T12:42:42;7.90;99.90
20319;DHT22;10317;47.254;11.314;2022-11-20T12:48:31;7.90;99.90
20319;DHT22;10317;47.254;11.314;2022-11-20T12:56:37;7.70;99.90
20319;DHT22;10317;47.254;11.314;2022-11-20T13:02:37;7.40;99.90
20319;DHT22;10317;47.254;11.314;2022-11-20T13:07:53;7.20;99.90
20319;DHT22;10317;47.254;11.314;2022-11-20T13:10:52;7.10;99.90
20319;DHT22;10317;47.254;11.314;2022-11-20T13:16:25;7.20;99.90
20319;DHT22;10317;47.254;11.314;2022-11-20T13:18:55;7.10;99.90
20319;DHT22;10317;47.254;11.314;2022-11-20T13:21:34;7.10;99.90
20319;DHT22;10317;47.254;11.314;2022-11-20T13:29:29;6.90;99.90
20319;DHT22;10317;47.254;11.314;2022-11-20T13:32:21;6.90;99.90
20319;DHT22;10317;47.254;11.314;2022-11-20T13:34:58;6.90;99.90
20319;DHT22;10317;47.254;11.314;2022-11-20T13:37:37;6.80;99.90
20319;DHT22;10317;47.254;11.314;2022-11-20T13:42:56;6.90;99.90
20319;DHT22;10317;47.254;11.314;2022-11-20T13:45:28;6.80;99.90
20319;DHT22;10317;47.254;11.314;2022-11-20T13:47:55;6.80;99.90
20319;DHT22;10317;47.254;11.314;2022-11-20T13:56:01;6.60;99.90
20319;DHT22;10317;47.254;11.314;2022-11-20T14:01:15;6.30;99.90
20319;DHT22;10317;47.254;11.314;2022-11-20T14:03:42;6.10;99.90
20319;DHT22;10317;47.254;11.314;2022-11-20T14:06:39;6.00;99.90
20319;DHT22;10317;47.254;11.314;2022-11-20T14:09:24;5.90;99.90
20319;DHT22;10317;47.254;11.314;2022-11-20T14:11:50;5.80;99.90
20319;DHT22;10317;47.254;11.314;2022-11-20T14:14:19;5.70;99.90
20319;DHT22;10317;47.254;11.314;2022-11-20T14:16:47;5.60;99.90
20319;DHT22;10317;47.254;11.314;2022-11-20T14:21:47;5.50;99.90
20319;DHT22;10317;47.254;11.314;2022-11-20T14:24:18;5.50;99.90
20319;DHT22;10317;47.254;11.314;2022-11-20T14:26:45;5.40;99.90
20319;DHT22;10317;47.254;11.314;2022-11-20T14:29:27;5.30;99.90
20319;DHT22;10317;47.254;11.314;2022-11-20T14:31:54;5.30;99.90
20319;DHT22;10317;47.254;11.314;2022-11-20T14:34:32;5.20;99.90
20319;DHT22;10317;47.254;11.314;2022-11-20T14:37:03;5.10;99.90
20319;DHT22;10317;47.254;11.314;2022-11-20T14:39:35;5.10;99.90
20319;DHT22;10317;47.254;11.314;2022-11-20T14:42:01;5.00;99.90
20319;DHT22;10317;47.254;11.314;2022-11-20T14:44:32;4.90;99.90
20319;DHT22;10317;47.254;11.314;2022-11-20T14:47:00;4.90;99.90
20319;DHT22;10317;47.254;11.314;2022-11-20T14:49:30;4.80;99.90
20319;DHT22;10317;47.254;11.314;2022-11-20T14:52:15;4.80;99.90
20319;DHT22;10317;47.254;11.314;2022-11-20T14:54:46;4.70;99.90
20319;DHT22;10317;47.254;11.314;2022-11-20T14:59:49;4.70;99.90
20319;DHT22;10317;47.254;11.314;2022-11-20T15:02:16;4.70;99.90
20319;DHT22;10317;47.254;11.314;2022-11-20T15:04:57;4.70;99.90
20319;DHT22;10317;47.254;11.314;2022-11-20T15:07:48;4.60;99.90
20319;DHT22;10317;47.254;11.314;2022-11-20T15:10:24;4.40;99.90
20319;DHT22;10317;47.254;11.314;2022-11-20T15:12:52;4.40;99.90
20319;DHT22;10317;47.254;11.314;2022-11-20T15:15:51;4.40;99.90
20319;DHT22;10317;47.254;11.314;2022-11-20T15:18:40;4.30;99.90
20319;DHT22;10317;47.254;11.314;2022-11-20T15:21:15;4.20;99.90
20319;DHT22;10317;47.254;11.314;2022-11-20T15:23:41;3.90;99.90
20319;DHT22;10317;47.254;11.314;2022-11-20T15:26:08;3.90;99.90
20319;DHT22;10317;47.254;11.314;2022-11-20T15:28:43;3.80;99.90
20319;DHT22;10317;47.254;11.314;2022-11-20T15:31:15;3.70;99.90
20319;DHT22;10317;47.254;11.314;2022-11-20T15:33:41;3.60;99.90
20319;DHT22;10317;47.254;11.314;2022-11-20T15:36:08;3.60;99.90
20319;DHT22;10317;47.254;11.314;2022-11-20T15:38:34;3.40;99.90
20319;DHT22;10317;47.254;11.314;2022-11-20T15:41:00;3.40;99.90
20319;DHT22;10317;47.254;11.314;2022-11-20T15:43:26;3.30;99.90
20319;DHT22;10317;47.254;11.314;2022-11-20T15:45:59;3.20;99.90
20319;DHT22;10317;47.254;11.314;2022-11-20T15:48:37;3.10;99.90
20319;DHT22;10317;47.254;11.314;2022-11-20T15:51:27;3.00;99.90
20319;DHT22;10317;47.254;11.314;2022-11-20T15:53:55;3.00;99.90
20319;DHT22;10317;47.254;11.314;2022-11-20T15:56:21;2.90;99.90
20319;DHT22;10317;47.254;11.314;2022-11-20T15:58:46;2.80;99.90
20319;DHT22;10317;47.254;11.314;2022-11-20T16:01:15;2.80;99.90
20319;DHT22;10317;47.254;11.314;2022-11-20T16:03:41;2.70;99.90
20319;DHT22;10317;47.254;11.314;2022-11-20T16:06:07;2.70;99.90
20319;DHT22;10317;47.254;11.314;2022-11-20T16:08:33;2.70;99.90
20319;DHT22;10317;47.254;11.314;2022-11-20T16:10:59;2.60;99.90
20319;DHT22;10317;47.254;11.314;2022-11-20T16:13:24;2.60;99.90
20319;DHT22;10317;47.254;11.314;2022-11-20T16:16:22;2.50;99.90
20319;DHT22;10317;47.254;11.314;2022-11-20T16:18:49;2.40;99.90
20319;DHT22;10317;47.254;11.314;2022-11-20T16:21:14;2.40;99.90
20319;DHT22;10317;47.254;11.314;2022-11-20T16:23:41;2.40;99.90
20319;DHT22;10317;47.254;11.314;2022-11-20T16:26:17;2.30;99.90
20319;DHT22;10317;47.254;11.314;2022-11-20T16:28:44;2.30;99.90
20319;DHT22;10317;47.254;11.314;2022-11-20T16:31:12;2.20;99.90
20319;DHT22;10317;47.254;11.314;2022-11-20T16:33:38;2.20;99.90
20319;DHT22;10317;47.254;11.314;2022-11-20T16:36:12;2.20;99.90
20319;DHT22;10317;47.254;11.314;2022-11-20T16:38:38;2.10;99.90
20319;DHT22;10317;47.254;11.314;2022-11-20T16:41:04;2.00;99.90
20319;DHT22;10317;47.254;11.314;2022-11-20T16:43:30;2.00;99.90
20319;DHT22;10317;47.254;11.314;2022-11-20T16:45:56;2.00;99.90
20319;DHT22;10317;47.254;11.314;2022-11-20T16:48:22;1.90;99.90
20319;DHT22;10317;47.254;11.314;2022-11-20T16:50:50;1.90;99.90
20319;DHT22;10317;47.254;11.314;2022-11-20T16:53:18;1.80;99.90
20319;DHT22;10317;47.254;11.314;2022-11-20T16:55:44;1.70;99.90
20319;DHT22;10317;47.254;11.314;2022-11-20T16:58:10;1.70;99.90
20319;DHT22;10317;47.254;11.314;2022-11-20T17:00:37;1.60;99.90
20319;DHT22;10317;47.254;11.314;2022-11-20T17:03:04;1.50;99.90
20319;DHT22;10317;47.254;11.314;2022-11-20T17:05:31;1.50;99.90
20319;DHT22;10317;47.254;11.314;2022-11-20T17:07:57;1.50;99.90
20319;DHT22;10317;47.254;11.314;2022-11-20T17:10:23;1.40;99.90
20319;DHT22;10317;47.254;11.314;2022-11-20T17:12:51;1.40;99.90
20319;DHT22;10317;47.254;11.314;2022-11-20T17:15:17;1.30;99.90
20319;DHT22;10317;47.254;11.314;2022-11-20T17:17:43;1.30;99.90
20319;DHT22;10317;47.254;11.314;2022-11-20T17:20:09;1.20;99.90
20319;DHT22;10317;47.254;11.314;2022-11-20T17:22:37;1.10;99.90
20319;DHT22;10317;47.254;11.314;2022-11-20T17:25:03;1.10;99.90
20319;DHT22;10317;47.254;11.314;2022-11-20T17:27:29;1.00;99.90
20319;DHT22;10317;47.254;11.314;2022-11-20T17:29:55;1.00;99.90
20319;DHT22;10317;47.254;11.314;2022-11-20T17:32:22;0.90;99.90
20319;DHT22;10317;47.254;11.314;2022-11-20T17:34:48;0.90;99.90
20319;DHT22;10317;47.254;11.314;2022-11-20T17:37:13;0.90;99.90